Time;durP1;ratioP1;P1;durP2;ratioP2;P2;SDS_P1;SDS_P2;PMS_P1;PMS_P2;Temp;Humidity;BMP_temperature;BMP_pressure;BME280_temperature;BME280_humidity;BME280_pressure;Samples;Min_cycle;Max_cycle;Signal;HPM_P1;HPM_P2
2021/01/11 00:00:13;;;;;;;;;;;;;;;-3.27;94.95;101514.75;6219032;23;19976;-73
2021/01/11 00:02:38;;;;;;;;;;;;;;;-3.28;94.96;101516.63;6193488;23;19908;-73
2021/01/11 00:05:05;;;;;;;;;;;;;;;-3.32;94.96;101512.56;6193932;23;19919;-73
2021/01/11 00:07:30;;;;;;;;;;;;;;;-3.33;94.85;101512.75;6193608;23;20325;-73
2021/01/11 00:09:55;;;;;;;;;;;;;;;-3.34;94.86;101511.06;6220219;23;19907;-73
2021/01/11 00:12:21;;;;;;;;;;;;;;;-3.34;94.99;101511.91;6220893;23;19907;-73
2021/01/11 00:14:46;;;;;;;;;;;;;;;-3.36;94.71;101505.81;6193158;23;19903;-73
2021/01/11 00:17:11;;;;;;;;;;;;;;;-3.34;94.48;101505.63;6193489;23;19908;-73
2021/01/11 00:19:37;;;;;;;;;;;;;;;-3.34;94.68;101511.06;6169141;23;19908;-73
2021/01/11 00:22:02;;;;;;;;;;;;;;;-3.38;94.59;101511.41;6193862;23;19910;-73
2021/01/11 00:24:27;;;;;;;;;;;;;;;-3.43;94.77;101507.53;6168673;23;19904;-73
2021/01/11 00:26:53;;;;;;;;;;;;;;;-3.45;94.70;101521.31;6220393;23;20006;-73
2021/01/11 00:29:19;;;;;;;;;;;;;;;-3.45;94.59;101525.91;6169017;23;19990;-73
2021/01/11 00:31:44;;;;;;;;;;;;;;;-3.49;94.62;101514.53;6218366;23;19990;-73
2021/01/11 00:34:09;;;;;;;;;;;;;;;-3.51;94.58;101532.00;6194625;23;19904;-73
2021/01/11 00:36:35;;;;;;;;;;;;;;;-3.51;94.43;101519.31;6173244;23;19953;-73
2021/01/11 00:39:00;;;;;;;;;;;;;;;-3.51;94.53;101530.19;6223851;23;19958;-73
2021/01/11 00:41:25;;;;;;;;;;;;;;;-3.52;94.42;101535.78;6250497;23;20325;-73
2021/01/11 00:43:51;;;;;;;;;;;;;;;-3.52;94.51;101533.91;6251031;23;19904;-73
2021/01/11 00:46:22;;;;;;;;;;;;;;;-3.54;94.56;101538.66;6249959;23;19903;-73
2021/01/11 00:48:48;;;;;;;;;;;;;;;-3.57;94.41;101528.13;6223051;23;19990;-73
2021/01/11 00:51:13;;;;;;;;;;;;;;;-3.59;94.45;101538.34;6198758;23;19910;-73
2021/01/11 00:53:39;;;;;;;;;;;;;;;-3.62;94.54;101530.56;6198666;23;19982;-73
2021/01/11 00:56:04;;;;;;;;;;;;;;;-3.61;94.56;101519.50;6198246;23;20274;-74
2021/01/11 00:58:30;;;;;;;;;;;;;;;-3.62;94.36;101519.69;6198868;23;19911;-73
2021/01/11 01:00:55;;;;;;;;;;;;;;;-3.63;94.46;101521.53;6224221;23;19904;-74
2021/01/11 01:03:20;;;;;;;;;;;;;;;-3.67;94.48;101508.53;6198088;23;20293;-74
2021/01/11 01:05:46;;;;;;;;;;;;;;;-3.65;94.51;101509.16;6198455;23;19943;-73
2021/01/11 01:08:11;;;;;;;;;;;;;;;-3.68;94.57;101512.25;6223680;23;20045;-73
2021/01/11 01:10:37;;;;;;;;;;;;;;;-3.70;94.48;101506.16;6223168;23;19993;-73
2021/01/11 01:13:02;;;;;;;;;;;;;;;-3.75;94.62;101511.25;6198925;23;19998;-73
2021/01/11 01:15:27;;;;;;;;;;;;;;;-3.75;94.59;101511.25;6223962;23;19903;-74
2021/01/11 01:17:53;;;;;;;;;;;;;;;-3.75;94.54;101513.97;6249736;23;19904;-74
2021/01/11 01:20:18;;;;;;;;;;;;;;;-3.78;94.55;101522.47;6198373;23;19957;-74
2021/01/11 01:22:47;;;;;;;;;;;;;;;-3.74;94.28;101521.09;6223901;23;19903;-73
2021/01/11 01:25:15;;;;;;;;;;;;;;;-3.79;94.83;101523.47;6173493;23;19907;-74
2021/01/11 01:27:40;;;;;;;;;;;;;;;-3.80;95.06;101524.50;6197910;23;19907;-74
2021/01/11 01:30:07;;;;;;;;;;;;;;;-3.83;95.13;101521.13;6198719;23;19904;-73
2021/01/11 01:32:33;;;;;;;;;;;;;;;-3.80;94.82;101521.78;6223046;23;19927;-73
2021/01/11 01:34:58;;;;;;;;;;;;;;;-3.79;95.04;101523.47;6173239;23;19915;-74
2021/01/11 01:37:24;;;;;;;;;;;;;;;-3.80;95.23;101517.22;6197504;23;19982;-74
2021/01/11 01:39:49;;;;;;;;;;;;;;;-3.74;95.10;101526.53;6198603;23;19907;-73
2021/01/11 01:42:14;;;;;;;;;;;;;;;-3.78;95.58;101523.31;6198248;23;20248;-74
2021/01/11 01:44:40;;;;;;;;;;;;;;;-3.76;95.54;101523.13;6223732;23;19907;-74
2021/01/11 01:47:05;;;;;;;;;;;;;;;-3.71;95.58;101531.59;6223271;23;19903;-74
2021/01/11 01:49:31;;;;;;;;;;;;;;;-3.70;95.82;101527.88;6250180;23;19946;-73
2021/01/11 01:51:56;;;;;;;;;;;;;;;-3.65;95.85;101525.47;6223303;23;19907;-73
2021/01/11 01:54:22;;;;;;;;;;;;;;;-3.66;95.73;101529.22;6198765;23;19911;-74
2021/01/11 01:56:47;;;;;;;;;;;;;;;-3.62;95.66;101525.13;6223624;23;19903;-74
2021/01/11 01:59:12;;;;;;;;;;;;;;;-3.61;95.56;101521.38;6223310;23;19954;-73
2021/01/11 02:01:38;;;;;;;;;;;;;;;-3.60;95.62;101531.22;6222890;23;19915;-74
2021/01/11 02:04:04;;;;;;;;;;;;;;;-3.55;95.62;101533.41;6223411;23;20239;-73
2021/01/11 02:06:31;;;;;;;;;;;;;;;-3.56;95.56;101524.41;6173176;23;19927;-73
2021/01/11 02:09:00;;;;;;;;;;;;;;;-3.53;95.46;101526.78;6249781;23;19908;-73
2021/01/11 02:11:28;;;;;;;;;;;;;;;-3.50;95.50;101521.00;6199017;23;19923;-73
2021/01/11 02:14:13;;;;;;;;;;;;;;;-3.52;95.49;101517.59;6223136;23;20317;-73
2021/01/11 02:16:44;;;;;;;;;;;;;;;-3.49;95.72;101517.25;6249582;23;19982;-73
2021/01/11 02:19:25;;;;;;;;;;;;;;;-3.53;95.78;101515.91;6198227;23;19914;-73
2021/01/11 02:22:00;;;;;;;;;;;;;;;-3.50;95.61;101512.00;6223832;23;19903;-73
2021/01/11 02:24:29;;;;;;;;;;;;;;;-3.49;95.54;101514.53;6198087;23;19903;-74
2021/01/11 02:27:13;;;;;;;;;;;;;;;-3.46;95.86;101503.31;6223156;23;19903;-73
2021/01/11 02:29:59;;;;;;;;;;;;;;;-3.49;95.81;101514.53;6223250;23;19918;-73
2021/01/11 02:32:24;;;;;;;;;;;;;;;-3.43;95.67;101519.25;6217639;23;19907;-73
2021/01/11 02:34:50;;;;;;;;;;;;;;;-3.44;95.80;101527.59;6197688;23;19966;-73
2021/01/11 02:37:15;;;;;;;;;;;;;;;-3.43;96.03;101519.25;6249116;23;19903;-73
2021/01/11 02:39:41;;;;;;;;;;;;;;;-3.39;95.97;101526.03;6173605;23;19904;-73
2021/01/11 02:42:06;;;;;;;;;;;;;;;-3.39;96.11;101515.16;6198052;23;19911;-74
2021/01/11 02:44:32;;;;;;;;;;;;;;;-3.37;96.12;101523.16;6223066;23;20392;-74
2021/01/11 02:46:57;;;;;;;;;;;;;;;-3.35;96.16;101520.25;6197958;23;19907;-73
2021/01/11 02:49:26;;;;;;;;;;;;;;;-3.33;96.15;101512.75;6198047;23;19907;-74
2021/01/11 02:52:11;;;;;;;;;;;;;;;-3.29;96.12;101514.09;6224508;23;19914;-73
2021/01/11 02:54:39;;;;;;;;;;;;;;;-3.23;96.20;101521.50;6225342;23;19903;-74
2021/01/11 02:57:05;;;;;;;;;;;;;;;-3.23;96.35;101518.78;6200414;23;19910;-74
2021/01/11 02:59:38;;;;;;;;;;;;;;;-3.19;96.25;101514.72;6251661;23;19927;-74
2021/01/11 03:02:05;;;;;;;;;;;;;;;-3.16;96.49;101520.63;6224218;23;19903;-73
2021/01/11 03:04:31;;;;;;;;;;;;;;;-3.15;96.57;101511.47;6199742;23;19915;-74
2021/01/11 03:06:57;;;;;;;;;;;;;;;-3.11;96.49;101511.94;6200113;23;19908;-73
2021/01/11 03:09:22;;;;;;;;;;;;;;;-3.07;96.73;101501.56;6174484;23;19982;-74
2021/01/11 03:11:48;;;;;;;;;;;;;;;-3.05;96.86;101499.50;6251990;23;19911;-73
2021/01/11 03:14:13;;;;;;;;;;;;;;;-3.00;96.98;101503.38;6175179;23;19903;-73
2021/01/11 03:16:39;;;;;;;;;;;;;;;-2.97;97.16;101510.34;6199152;23;19927;-73
2021/01/11 03:19:04;;;;;;;;;;;;;;;-2.95;97.12;101513.72;6251051;23;19903;-73
2021/01/11 03:21:33;;;;;;;;;;;;;;;-2.90;97.28;101532.19;6200056;23;19903;-73
2021/01/11 03:23:59;;;;;;;;;;;;;;;-2.87;97.39;101520.94;6199537;23;19907;-73
2021/01/11 03:26:24;;;;;;;;;;;;;;;-2.85;97.46;101521.63;6224569;23;19910;-73
2021/01/11 03:28:49;;;;;;;;;;;;;;;-2.80;97.25;101509.19;6224446;23;19907;-74
2021/01/11 03:31:15;;;;;;;;;;;;;;;-2.73;97.42;101509.28;6224427;23;19911;-73
2021/01/11 03:33:40;;;;;;;;;;;;;;;-2.74;97.04;101502.16;6199237;23;19910;-73
2021/01/11 03:36:06;;;;;;;;;;;;;;;-2.68;97.17;101497.88;6199165;23;19918;-74
2021/01/11 03:38:31;;;;;;;;;;;;;;;-2.67;97.46;101500.41;6224939;23;19911;-73
2021/01/11 03:41:00;;;;;;;;;;;;;;;-2.64;97.40;101496.50;6199419;23;19907;-73
2021/01/11 03:43:26;;;;;;;;;;;;;;;-2.60;97.21;101504.06;6199725;23;19931;-73
2021/01/11 03:45:51;;;;;;;;;;;;;;;-2.59;97.58;101500.34;6199523;23;19963;-73
2021/01/11 03:48:17;;;;;;;;;;;;;;;-2.57;97.56;101497.44;6250444;23;19907;-73
2021/01/11 03:50:43;;;;;;;;;;;;;;;-2.54;97.62;101499.78;6199101;23;19910;-74
2021/01/11 03:53:08;;;;;;;;;;;;;;;-2.52;97.47;101501.28;6251530;23;19903;-74
2021/01/11 03:55:34;;;;;;;;;;;;;;;-2.49;97.39;101503.63;6174508;23;19907;-74
2021/01/11 03:57:59;;;;;;;;;;;;;;;-2.48;97.21;101508.06;6199119;23;19986;-76
2021/01/11 04:00:25;;;;;;;;;;;;;;;-2.47;97.43;101504.31;6224894;23;19907;-76
2021/01/11 04:02:52;;;;;;;;;;;;;;;-2.40;97.39;101512.56;6198379;23;19934;-76
2021/01/11 04:05:18;;;;;;;;;;;;;;;-2.41;97.25;101502.72;6199071;23;19911;-76
2021/01/11 04:07:43;;;;;;;;;;;;;;;-2.39;97.16;101489.78;6199316;23;19903;-76
2021/01/11 04:10:09;;;;;;;;;;;;;;;-2.36;97.27;101497.59;6199349;23;19910;-76
2021/01/11 04:12:35;;;;;;;;;;;;;;;-2.34;97.27;101491.94;6224152;23;19904;-76
2021/01/11 04:15:00;;;;;;;;;;;;;;;-2.31;97.10;101497.88;6199179;23;19904;-76
2021/01/11 04:17:25;;;;;;;;;;;;;;;-2.27;97.19;101495.63;6173217;23;19903;-76
2021/01/11 04:19:54;;;;;;;;;;;;;;;-2.27;97.03;101498.34;6174403;23;20336;-76
2021/01/11 04:22:19;;;;;;;;;;;;;;;-2.25;97.30;101490.84;6250746;23;19907;-76
2021/01/11 04:24:47;;;;;;;;;;;;;;;-2.24;97.31;101489.81;6224156;23;19903;-76
2021/01/11 04:27:12;;;;;;;;;;;;;;;-2.21;97.38;101494.88;6199159;23;19913;-76
2021/01/11 04:29:38;;;;;;;;;;;;;;;-2.18;97.08;101494.50;6198766;23;19950;-76
2021/01/11 04:32:03;;;;;;;;;;;;;;;-2.17;97.07;101490.75;6173372;23;19904;-75
2021/01/11 04:34:29;;;;;;;;;;;;;;;-2.14;97.28;101482.22;6223682;23;20344;-75
2021/01/11 04:36:54;;;;;;;;;;;;;;;-2.11;97.21;101502.78;6222980;23;19903;-75
2021/01/11 04:39:20;;;;;;;;;;;;;;;-2.09;97.10;101496.13;6250717;23;19926;-75
2021/01/11 04:41:48;;;;;;;;;;;;;;;-2.08;97.18;101503.25;6224059;23;19908;-75
2021/01/11 04:44:13;;;;;;;;;;;;;;;-2.07;97.16;101493.19;6250565;23;19904;-75
2021/01/11 04:46:39;;;;;;;;;;;;;;;-2.04;97.17;101482.78;6223670;23;19904;-76
2021/01/11 04:49:05;;;;;;;;;;;;;;;-2.02;97.12;101480.72;6198779;23;19908;-75
2021/01/11 04:51:31;;;;;;;;;;;;;;;-2.01;97.15;101481.56;6223798;23;19911;-75
2021/01/11 04:53:57;;;;;;;;;;;;;;;-1.97;97.08;101477.44;6223866;23;19903;-75
2021/01/11 04:56:22;;;;;;;;;;;;;;;-1.97;97.06;101480.16;6198759;23;19914;-75
2021/01/11 04:58:51;;;;;;;;;;;;;;;-1.94;97.00;101478.94;6223867;23;20280;-75
2021/01/11 05:01:16;;;;;;;;;;;;;;;-1.92;96.91;101491.34;6249398;23;19930;-76
2021/01/11 05:03:42;;;;;;;;;;;;;;;-1.91;96.99;101487.56;6173353;23;19911;-75
2021/01/11 05:06:07;;;;;;;;;;;;;;;-1.89;97.04;101479.22;6250803;23;19911;-75
2021/01/11 05:08:32;;;;;;;;;;;;;;;-1.87;97.03;101490.75;6198551;23;20002;-75
2021/01/11 05:11:00;;;;;;;;;;;;;;;-1.87;96.89;101482.59;6198930;23;20300;-75
2021/01/11 05:13:27;;;;;;;;;;;;;;;-1.85;96.91;101472.34;6224120;23;19903;-75
2021/01/11 05:15:52;;;;;;;;;;;;;;;-1.86;96.75;101474.25;6223741;23;19907;-75
2021/01/11 05:18:18;;;;;;;;;;;;;;;-1.82;96.59;101480.97;6222895;23;19974;-75
2021/01/11 05:20:44;;;;;;;;;;;;;;;-1.80;96.89;101476.19;6173406;23;19904;-75
2021/01/11 05:23:10;;;;;;;;;;;;;;;-1.80;96.77;101465.31;6250854;23;19946;-75
2021/01/11 05:25:35;;;;;;;;;;;;;;;-1.79;96.75;101468.88;6250158;23;19903;-75
2021/01/11 05:28:08;;;;;;;;;;;;;;;-1.76;96.62;101473.94;6223967;23;20321;-75
2021/01/11 05:30:36;;;;;;;;;;;;;;;-1.75;96.84;101475.66;6174728;23;19930;-75
2021/01/11 05:33:02;;;;;;;;;;;;;;;-1.73;96.63;101479.00;6197644;23;19943;-75
2021/01/11 05:35:28;;;;;;;;;;;;;;;-1.75;96.68;101470.19;6223261;23;20292;-75
2021/01/11 05:37:58;;;;;;;;;;;;;;;-1.72;96.62;101485.31;6249761;23;19904;-75
2021/01/11 05:40:24;;;;;;;;;;;;;;;-1.70;96.52;101477.78;6249963;23;19907;-75
2021/01/11 05:42:53;;;;;;;;;;;;;;;-1.68;96.58;101478.44;6198162;23;19989;-76
2021/01/11 05:45:22;;;;;;;;;;;;;;;-1.70;96.57;101473.19;6223946;23;19907;-75
2021/01/11 05:48:05;;;;;;;;;;;;;;;-1.69;96.50;101477.59;6198129;23;20428;-75
2021/01/11 05:50:35;;;;;;;;;;;;;;;-1.66;96.67;101473.66;6223132;23;19908;-75
2021/01/11 05:53:01;;;;;;;;;;;;;;;-1.64;96.70;101479.78;6198504;23;20265;-76
2021/01/11 05:55:27;;;;;;;;;;;;;;;-1.63;96.68;101481.44;6174058;23;19904;-73
2021/01/11 05:57:53;;;;;;;;;;;;;;;-1.63;96.89;101479.56;6173457;23;19942;-74
2021/01/11 06:00:19;;;;;;;;;;;;;;;-1.62;96.61;101473.06;6223339;23;20305;-74
2021/01/11 06:02:45;;;;;;;;;;;;;;;-1.61;96.80;101474.78;6222922;23;20206;-73
2021/01/11 06:05:10;;;;;;;;;;;;;;;-1.59;96.96;101474.56;6223549;23;19910;-74
2021/01/11 06:07:36;;;;;;;;;;;;;;;-1.58;96.76;101470.84;6198323;23;19987;-74
2021/01/11 06:10:01;;;;;;;;;;;;;;;-1.58;96.81;101471.66;6173252;23;19942;-73
2021/01/11 06:12:27;;;;;;;;;;;;;;;-1.57;96.77;101473.34;6223602;23;19904;-74
2021/01/11 06:14:52;;;;;;;;;;;;;;;-1.55;96.71;101475.06;6198306;23;19908;-73
2021/01/11 06:17:18;;;;;;;;;;;;;;;-1.54;96.70;101471.28;6223302;23;19914;-73
2021/01/11 06:19:44;;;;;;;;;;;;;;;-1.52;96.71;101469.22;6198022;23;20232;-73
2021/01/11 06:22:13;;;;;;;;;;;;;;;-1.52;96.62;101469.22;6198646;23;19908;-73
2021/01/11 06:24:38;;;;;;;;;;;;;;;-1.51;96.75;101470.91;6198560;23;19904;-73
2021/01/11 06:27:14;;;;;;;;;;;;;;;-1.52;96.61;101463.78;6225866;23;19934;-73
2021/01/11 06:29:41;;;;;;;;;;;;;;;-1.49;96.75;101464.22;6199585;23;19907;-74
2021/01/11 06:32:16;;;;;;;;;;;;;;;-1.49;96.78;101457.94;6174314;23;19949;-74
2021/01/11 06:34:42;;;;;;;;;;;;;;;-1.48;96.98;101462.34;6225181;23;20279;-74
2021/01/11 06:37:22;;;;;;;;;;;;;;;-1.48;96.79;101460.47;6199730;23;19908;-73
2021/01/11 06:39:48;;;;;;;;;;;;;;;-1.46;96.88;101458.41;6225411;23;19938;-74
2021/01/11 06:42:13;;;;;;;;;;;;;;;-1.45;96.80;101456.50;6199939;23;19910;-74
2021/01/11 06:44:39;;;;;;;;;;;;;;;-1.45;96.96;101468.28;6252171;23;19903;-74
2021/01/11 06:47:04;;;;;;;;;;;;;;;-1.45;96.70;101459.22;6224389;23;19904;-73
2021/01/11 06:49:30;;;;;;;;;;;;;;;-1.42;96.74;101458.84;6249156;23;19908;-73
2021/01/11 06:52:05;;;;;;;;;;;;;;;-1.42;96.87;101461.56;6223961;23;19911;-73
2021/01/11 06:54:34;;;;;;;;;;;;;;;-1.40;96.95;101462.22;6225257;23;19989;-73
2021/01/11 06:57:00;;;;;;;;;;;;;;;-1.41;96.98;101461.41;6251359;23;20340;-73
2021/01/11 06:59:26;;;;;;;;;;;;;;;-1.39;97.17;101453.03;6174812;23;20696;-73
2021/01/11 07:01:51;;;;;;;;;;;;;;;-1.39;97.00;101461.22;6224629;23;19903;-73
2021/01/11 07:04:35;;;;;;;;;;;;;;;-1.38;96.92;101462.88;6199110;23;19910;-74
2021/01/11 07:07:01;;;;;;;;;;;;;;;-1.38;97.02;101455.56;6224603;23;20234;-73
2021/01/11 07:09:26;;;;;;;;;;;;;;;-1.37;97.07;101456.41;6224889;23;19907;-73
2021/01/11 07:11:52;;;;;;;;;;;;;;;-1.35;97.28;101459.78;6199761;23;19907;-73
2021/01/11 07:14:21;;;;;;;;;;;;;;;-1.35;97.08;101454.31;6224740;23;19918;-73
2021/01/11 07:16:47;;;;;;;;;;;;;;;-1.34;97.09;101456.00;6174386;23;19909;-73
2021/01/11 07:19:13;;;;;;;;;;;;;;;-1.34;97.05;101456.00;6250240;23;20217;-73
2021/01/11 07:21:38;;;;;;;;;;;;;;;-1.33;97.14;101451.41;6224402;23;19911;-73
2021/01/11 07:24:04;;;;;;;;;;;;;;;-1.33;97.10;101451.41;6224994;23;19915;-73
2021/01/11 07:26:30;;;;;;;;;;;;;;;-1.32;97.01;101458.56;6225237;23;20277;-73
2021/01/11 07:29:05;;;;;;;;;;;;;;;-1.31;97.19;101452.06;6224332;23;19912;-73
2021/01/11 07:31:38;;;;;;;;;;;;;;;-1.32;97.21;101453.94;6198943;23;19908;-75
2021/01/11 07:34:13;;;;;;;;;;;;;;;-1.31;97.08;101447.47;6202304;22;19931;-73
2021/01/11 07:36:45;;;;;;;;;;;;;;;-1.30;97.18;101457.31;6199001;23;20328;-73
2021/01/11 07:39:16;;;;;;;;;;;;;;;-1.28;97.36;101459.84;6224185;23;19910;-73
2021/01/11 07:41:43;;;;;;;;;;;;;;;-1.28;97.24;101465.28;6224669;23;19935;-73
2021/01/11 07:44:12;;;;;;;;;;;;;;;-1.28;97.35;101457.97;6175118;23;19903;-73
2021/01/11 07:46:37;;;;;;;;;;;;;;;-1.26;97.36;101466.78;6198803;23;19927;-73
2021/01/11 07:49:09;;;;;;;;;;;;;;;-1.26;97.16;101464.06;6198828;23;19908;-73
2021/01/11 07:51:41;;;;;;;;;;;;;;;-1.24;97.28;101469.34;6224590;23;20233;-77
2021/01/11 07:54:14;;;;;;;;;;;;;;;-1.24;97.33;101467.44;6200103;23;19977;-76
2021/01/11 07:56:40;;;;;;;;;;;;;;;-1.22;97.24;101464.53;6198687;23;19903;-73
2021/01/11 07:59:06;;;;;;;;;;;;;;;-1.21;97.28;101469.78;6198717;23;19904;-74
2021/01/11 08:01:33;;;;;;;;;;;;;;;-1.20;97.30;101468.78;6251400;23;19904;-73
2021/01/11 08:03:58;;;;;;;;;;;;;;;-1.19;97.32;101470.44;6223800;23;20236;-73
2021/01/11 08:06:23;;;;;;;;;;;;;;;-1.17;97.17;101462.94;6173901;23;19975;-73
2021/01/11 08:08:50;;;;;;;;;;;;;;;-1.16;97.18;101469.22;6199011;23;20347;-73
2021/01/11 08:11:15;;;;;;;;;;;;;;;-1.16;97.29;101467.34;6251401;23;19982;-73
2021/01/11 08:13:41;;;;;;;;;;;;;;;-1.13;97.30;101474.28;6198697;23;19903;-74
2021/01/11 08:16:10;;;;;;;;;;;;;;;-1.12;97.36;101476.78;6250885;23;19903;-73
2021/01/11 08:18:35;;;;;;;;;;;;;;;-1.10;97.17;101470.31;6250838;23;19910;-73
2021/01/11 08:21:05;;;;;;;;;;;;;;;-1.09;97.15;101475.56;6223715;23;19908;-73
2021/01/11 08:23:30;;;;;;;;;;;;;;;-1.06;97.22;101477.06;6250991;23;20210;-73
2021/01/11 08:25:55;;;;;;;;;;;;;;;-1.06;97.19;101469.72;6199377;23;19910;-73
2021/01/11 08:28:21;;;;;;;;;;;;;;;-1.03;97.10;101480.28;6198793;23;19907;-73
2021/01/11 08:30:46;;;;;;;;;;;;;;;-1.04;97.34;101475.84;6223809;23;20335;-73
2021/01/11 08:33:12;;;;;;;;;;;;;;;-1.01;97.09;101477.34;6250436;23;19907;-73
2021/01/11 08:35:37;;;;;;;;;;;;;;;-1.00;97.04;101481.78;6223183;23;19918;-73
2021/01/11 08:38:05;;;;;;;;;;;;;;;-0.98;96.92;101485.13;6223591;23;19986;-74
2021/01/11 08:40:33;;;;;;;;;;;;;;;-0.95;96.92;101487.47;6174768;23;19911;-74
2021/01/11 08:43:13;;;;;;;;;;;;;;;-0.94;96.99;101483.72;6199503;23;19914;-73
2021/01/11 08:45:39;;;;;;;;;;;;;;;-0.93;96.95;101477.22;6250654;23;19907;-73
2021/01/11 08:48:07;;;;;;;;;;;;;;;-0.92;96.97;101485.22;6221853;23;19904;-74
2021/01/11 08:50:38;;;;;;;;;;;;;;;-0.90;96.82;101479.53;6250979;23;19938;-74
2021/01/11 08:53:36;;;;;;;;;;;;;;;-0.88;96.68;101482.94;6223670;23;19903;-74
2021/01/11 08:56:09;;;;;;;;;;;;;;;-0.86;96.60;101479.97;6198553;23;19914;-74
2021/01/11 08:58:36;;;;;;;;;;;;;;;-0.85;96.57;101474.34;6225171;23;19907;-74
2021/01/11 09:01:11;;;;;;;;;;;;;;;-0.83;96.55;101475.00;6224220;23;19914;-73
2021/01/11 09:03:40;;;;;;;;;;;;;;;-0.80;96.68;101480.06;6198641;23;20079;-73
2021/01/11 09:06:05;;;;;;;;;;;;;;;-0.78;96.72;101475.28;6223679;23;19927;-73
2021/01/11 09:08:31;;;;;;;;;;;;;;;-0.78;96.59;101478.00;6250398;23;19907;-74
2021/01/11 09:10:56;;;;;;;;;;;;;;;-0.74;96.64;101478.44;6198681;23;20229;-73
2021/01/11 09:13:22;;;;;;;;;;;;;;;-0.73;96.53;101480.97;6173826;23;20355;-73
2021/01/11 09:15:51;;;;;;;;;;;;;;;-0.72;96.43;101485.38;6223610;23;19982;-74
2021/01/11 09:18:16;;;;;;;;;;;;;;;-0.69;96.63;101481.44;6198590;23;19957;-73
2021/01/11 09:20:42;;;;;;;;;;;;;;;-0.66;96.63;101482.94;6249652;23;20521;-74
2021/01/11 09:23:07;;;;;;;;;;;;;;;-0.64;96.63;101489.00;6223677;23;19919;-74
2021/01/11 09:25:34;;;;;;;;;;;;;;;-0.63;96.54;101488.00;6223791;23;19948;-73
2021/01/11 09:28:00;;;;;;;;;;;;;;;-0.61;96.35;101486.75;6198085;23;19908;-74
2021/01/11 09:30:25;;;;;;;;;;;;;;;-0.58;96.41;101489.09;6250036;23;19939;-74
2021/01/11 09:32:50;;;;;;;;;;;;;;;-0.56;96.40;101494.34;6223044;23;19904;-74
2021/01/11 09:35:16;;;;;;;;;;;;;;;-0.55;96.57;101491.41;6198552;23;19911;-74
2021/01/11 09:37:41;;;;;;;;;;;;;;;-0.52;96.22;101503.81;6197419;23;19910;-74
2021/01/11 09:40:07;;;;;;;;;;;;;;;-0.49;96.23;101503.44;6223692;23;19903;-74
2021/01/11 09:42:32;;;;;;;;;;;;;;;-0.48;96.16;101511.41;6198976;23;19915;-73
2021/01/11 09:44:58;;;;;;;;;;;;;;;-0.46;96.08;101514.78;6223136;23;19907;-74
2021/01/11 09:47:23;;;;;;;;;;;;;;;-0.44;95.94;101517.34;6197957;23;19903;-74
2021/01/11 09:49:51;;;;;;;;;;;;;;;-0.40;95.74;101521.34;6223508;23;19908;-74
2021/01/11 09:52:16;;;;;;;;;;;;;;;-0.38;95.28;101519.28;6223054;23;20376;-74
2021/01/11 09:54:42;;;;;;;;;;;;;;;-0.35;95.46;101531.69;6223230;23;19977;-74
2021/01/11 09:57:10;;;;;;;;;;;;;;;-0.32;95.23;101526.66;6223797;23;19911;-73
2021/01/11 09:59:38;;;;;;;;;;;;;;;-0.31;95.26;101531.06;6199011;23;19978;-74
2021/01/11 10:02:04;;;;;;;;;;;;;;;-0.28;94.79;101533.44;6174862;23;19910;-74
2021/01/11 10:04:29;;;;;;;;;;;;;;;-0.25;95.10;101530.31;6200443;23;19904;-74
2021/01/11 10:06:55;;;;;;;;;;;;;;;-0.21;95.44;101533.47;6225695;23;19904;-73
2021/01/11 10:09:21;;;;;;;;;;;;;;;-0.18;95.31;101529.50;6224829;23;19961;-74
2021/01/11 10:11:47;;;;;;;;;;;;;;;-0.15;95.45;101529.94;6225531;23;19982;-74
2021/01/11 10:14:13;;;;;;;;;;;;;;;-0.11;95.72;101524.91;6200844;23;19908;-73
2021/01/11 10:16:38;;;;;;;;;;;;;;;-0.08;95.50;101528.13;6199569;23;19903;-74
2021/01/11 10:19:04;;;;;;;;;;;;;;;-0.04;95.26;101531.28;6224827;23;19982;-74
2021/01/11 10:21:29;;;;;;;;;;;;;;;-0.01;94.98;101528.16;6200731;23;19904;-73
2021/01/11 10:23:54;;;;;;;;;;;;;;;0.03;95.28;101528.59;6200388;23;19904;-73
2021/01/11 10:26:20;;;;;;;;;;;;;;;0.05;94.97;101527.34;6199988;23;19930;-73
2021/01/11 10:28:46;;;;;;;;;;;;;;;0.10;95.47;101533.06;6225246;23;19989;-74
2021/01/11 10:31:12;;;;;;;;;;;;;;;0.14;95.76;101534.38;6225256;23;19958;-74
2021/01/11 10:33:37;;;;;;;;;;;;;;;0.19;95.72;101534.59;6224499;23;19927;-74
2021/01/11 10:36:02;;;;;;;;;;;;;;;0.24;95.98;101530.44;6251354;23;20315;-74
2021/01/11 10:38:28;;;;;;;;;;;;;;;0.29;95.67;101530.66;6200213;23;20303;-73
2021/01/11 10:40:53;;;;;;;;;;;;;;;0.34;95.97;101529.03;6224824;23;19904;-73
2021/01/11 10:43:18;;;;;;;;;;;;;;;0.39;95.99;101523.81;6252074;23;20347;-73
2021/01/11 10:45:44;;;;;;;;;;;;;;;0.45;96.25;101524.88;6251804;23;19954;-74
2021/01/11 10:48:09;;;;;;;;;;;;;;;0.52;95.75;101517.53;6199157;23;19969;-74
2021/01/11 10:50:34;;;;;;;;;;;;;;;0.59;95.81;101515.69;6225031;23;20257;-74
2021/01/11 10:53:00;;;;;;;;;;;;;;;0.65;95.69;101512.13;6224836;23;20218;-73
2021/01/11 10:55:25;;;;;;;;;;;;;;;0.72;95.96;101511.31;6199376;23;19903;-73
2021/01/11 10:57:51;;;;;;;;;;;;;;;0.80;95.76;101501.03;6199259;23;19914;-74
2021/01/11 11:00:21;;;;;;;;;;;;;;;0.88;95.58;101500.00;6251378;23;19910;-73
2021/01/11 11:02:47;;;;;;;;;;;;;;;0.95;95.25;101495.41;6174953;23;19911;-73
2021/01/11 11:05:12;;;;;;;;;;;;;;;1.03;95.11;101492.50;6223851;23;20317;-74
2021/01/11 11:07:38;;;;;;;;;;;;;;;1.10;95.02;101487.84;6251335;23;20257;-74
2021/01/11 11:10:05;;;;;;;;;;;;;;;1.20;95.03;101486.59;6175012;23;20379;-73
2021/01/11 11:12:32;;;;;;;;;;;;;;;1.27;94.91;101482.84;6174529;23;19974;-73
2021/01/11 11:14:59;;;;;;;;;;;;;;;1.36;94.89;101483.47;6224885;23;19908;-74
2021/01/11 11:17:28;;;;;;;;;;;;;;;1.44;94.50;101485.16;6199881;23;19904;-74
2021/01/11 11:20:01;;;;;;;;;;;;;;;1.52;94.62;101476.75;6173800;23;19910;-74
2021/01/11 11:22:29;;;;;;;;;;;;;;;1.61;94.46;101477.38;6175366;23;20011;-73
2021/01/11 11:24:57;;;;;;;;;;;;;;;1.68;94.51;101489.19;6199777;23;19904;-74
2021/01/11 11:27:22;;;;;;;;;;;;;;;1.76;94.08;101478.00;6225695;23;19904;-74
2021/01/11 11:29:53;;;;;;;;;;;;;;;1.81;93.58;101478.19;6174447;23;19915;-74
2021/01/11 11:32:19;;;;;;;;;;;;;;;1.89;92.91;101469.75;6224330;23;19910;-73
2021/01/11 11:34:44;;;;;;;;;;;;;;;1.96;93.08;101459.63;6224242;23;19911;-74
2021/01/11 11:37:09;;;;;;;;;;;;;;;2.05;93.52;101462.16;6198292;23;19903;-73
2021/01/11 11:39:35;;;;;;;;;;;;;;;2.12;93.77;101460.25;6199627;23;20289;-74
2021/01/11 11:42:00;;;;;;;;;;;;;;;2.20;93.97;101449.03;6251637;23;19903;-74
2021/01/11 11:44:26;;;;;;;;;;;;;;;2.27;93.44;101459.97;6199464;23;19903;-74
2021/01/11 11:46:51;;;;;;;;;;;;;;;2.36;93.94;101454.03;6198315;23;19908;-74
2021/01/11 11:49:17;;;;;;;;;;;;;;;2.43;93.55;101445.81;6224166;23;19907;-74
2021/01/11 11:51:46;;;;;;;;;;;;;;;2.51;93.54;101441.94;6224167;23;19908;-74
2021/01/11 11:54:14;;;;;;;;;;;;;;;2.58;93.03;101440.03;6174639;23;19953;-74
2021/01/11 11:56:42;;;;;;;;;;;;;;;2.66;93.13;101445.25;6200342;23;19951;-74
2021/01/11 11:59:08;;;;;;;;;;;;;;;2.73;92.90;101443.34;6199676;23;20240;-74
2021/01/11 12:01:40;;;;;;;;;;;;;;;2.82;93.42;101450.25;6198506;23;19904;-75
2021/01/11 12:04:08;;;;;;;;;;;;;;;2.91;93.19;101446.16;6199295;23;19907;-74
2021/01/11 12:06:40;;;;;;;;;;;;;;;3.01;94.22;101447.59;6175364;23;19923;-74
2021/01/11 12:09:11;;;;;;;;;;;;;;;3.08;92.82;101442.91;6174222;23;19908;-75
2021/01/11 12:11:40;;;;;;;;;;;;;;;3.16;93.04;101437.16;6204858;22;19945;-74
2021/01/11 12:14:11;;;;;;;;;;;;;;;3.26;94.31;101431.16;6223941;23;19904;-74
2021/01/11 12:16:36;;;;;;;;;;;;;;;3.31;93.33;101429.41;6249403;22;19910;-74
2021/01/11 12:19:05;;;;;;;;;;;;;;;3.39;93.31;101435.69;6228359;22;19907;-74
2021/01/11 12:21:34;;;;;;;;;;;;;;;3.45;92.93;101435.63;6229162;22;19903;-74
2021/01/11 12:23:59;;;;;;;;;;;;;;;3.52;92.60;101430.94;6229058;22;19914;-74
2021/01/11 12:26:28;;;;;;;;;;;;;;;3.59;93.10;101425.38;6205122;22;19903;-74
2021/01/11 12:28:58;;;;;;;;;;;;;;;3.67;93.78;101416.84;6229938;22;19914;-75
2021/01/11 12:31:39;;;;;;;;;;;;;;;3.73;93.72;101402.22;6228579;22;20311;-74
2021/01/11 12:37:45;;;;;;;;;;;;;;;3.89;92.79;101405.44;6073458;23;19913;-75
2021/01/11 12:40:28;;;;;;;;;;;;;;;3.95;92.73;101401.75;6126906;23;19905;-75